sensor_id;sensor_type;location;lat;lon;timestamp;pressure;altitude;pressure_sealevel;temperature;humidity
11987;BME280;6053;51.382;6.768;2022-07-24T00:00:04;101567.22;;;25.03;64.53
11987;BME280;6053;51.382;6.768;2022-07-24T00:02:33;101565.84;;;25.00;64.51
11987;BME280;6053;51.382;6.768;2022-07-24T00:05:01;101562.47;;;24.98;64.50
11987;BME280;6053;51.382;6.768;2022-07-24T00:07:30;101569.06;;;24.93;64.85
11987;BME280;6053;51.382;6.768;2022-07-24T00:09:58;101571.06;;;24.93;64.48
11987;BME280;6053;51.382;6.768;2022-07-24T00:12:27;101570.84;;;24.89;64.67
11987;BME280;6053;51.382;6.768;2022-07-24T00:14:55;101563.53;;;24.88;64.65
11987;BME280;6053;51.382;6.768;2022-07-24T00:17:25;101555.78;;;24.94;64.20
11987;BME280;6053;51.382;6.768;2022-07-24T00:19:54;101553.47;;;24.82;64.82
11987;BME280;6053;51.382;6.768;2022-07-24T00:22:22;101552.09;;;24.80;64.62
11987;BME280;6053;51.382;6.768;2022-07-24T00:24:51;101566.75;;;24.82;64.64
11987;BME280;6053;51.382;6.768;2022-07-24T00:27:19;101554.38;;;24.78;64.95
11987;BME280;6053;51.382;6.768;2022-07-24T00:29:48;101553.03;;;24.75;64.96
11987;BME280;6053;51.382;6.768;2022-07-24T00:32:16;101554.31;;;24.83;64.54
11987;BME280;6053;51.382;6.768;2022-07-24T00:34:46;101559.19;;;24.77;63.69
11987;BME280;6053;51.382;6.768;2022-07-24T00:37:14;101550.09;;;24.80;64.32
11987;BME280;6053;51.382;6.768;2022-07-24T00:39:44;101543.69;;;24.75;64.33
11987;BME280;6053;51.382;6.768;2022-07-24T00:42:14;101549.34;;;24.75;64.55
11987;BME280;6053;51.382;6.768;2022-07-24T00:44:43;101550.28;;;24.70;64.55
11987;BME280;6053;51.382;6.768;2022-07-24T00:47:11;101552.28;;;24.69;64.71
11987;BME280;6053;51.382;6.768;2022-07-24T00:49:39;101547.03;;;24.63;64.74
11987;BME280;6053;51.382;6.768;2022-07-24T00:52:09;101550.69;;;24.63;64.56
11987;BME280;6053;51.382;6.768;2022-07-24T00:54:39;101555.50;;;24.63;64.50
11987;BME280;6053;51.382;6.768;2022-07-24T00:57:07;101549.09;;;24.57;64.75
11987;BME280;6053;51.382;6.768;2022-07-24T00:59:37;101551.06;;;24.57;65.04
11987;BME280;6053;51.382;6.768;2022-07-24T01:02:06;101558.91;;;24.60;64.56
11987;BME280;6053;51.382;6.768;2022-07-24T01:04:34;101564.88;;;24.58;64.66
11987;BME280;6053;51.382;6.768;2022-07-24T01:07:03;101564.03;;;24.58;64.57
11987;BME280;6053;51.382;6.768;2022-07-24T01:09:33;101564.13;;;24.53;64.85
11987;BME280;6053;51.382;6.768;2022-07-24T01:12:03;101558.47;;;24.53;64.88
11987;BME280;6053;51.382;6.768;2022-07-24T01:14:32;101549.25;;;24.47;65.17
11987;BME280;6053;51.382;6.768;2022-07-24T01:17:01;101554.59;;;24.49;65.07
11987;BME280;6053;51.382;6.768;2022-07-24T01:19:29;101552.91;;;24.48;64.77
11987;BME280;6053;51.382;6.768;2022-07-24T01:21:59;101556.34;;;24.44;65.20
11987;BME280;6053;51.382;6.768;2022-07-24T01:24:27;101555.84;;;24.37;65.34
11987;BME280;6053;51.382;6.768;2022-07-24T01:26:56;101549.09;;;24.38;65.34
11987;BME280;6053;51.382;6.768;2022-07-24T01:29:24;101542.06;;;24.36;65.21
11987;BME280;6053;51.382;6.768;2022-07-24T01:31:52;101555.34;;;24.35;65.34
11987;BME280;6053;51.382;6.768;2022-07-24T01:34:21;101548.88;;;24.35;65.37
11987;BME280;6053;51.382;6.768;2022-07-24T01:36:49;101549.09;;;24.38;65.09
11987;BME280;6053;51.382;6.768;2022-07-24T01:39:19;101550.31;;;24.32;65.28
11987;BME280;6053;51.382;6.768;2022-07-24T01:41:47;101545.50;;;24.33;65.17
11987;BME280;6053;51.382;6.768;2022-07-24T01:44:16;101542.16;;;24.31;64.92
11987;BME280;6053;51.382;6.768;2022-07-24T01:46:44;101540.09;;;24.36;64.73
11987;BME280;6053;51.382;6.768;2022-07-24T01:49:13;101539.88;;;24.33;64.95
11987;BME280;6053;51.382;6.768;2022-07-24T01:51:41;101535.59;;;24.16;65.68
11987;BME280;6053;51.382;6.768;2022-07-24T01:54:09;101532.41;;;24.23;65.33
11987;BME280;6053;51.382;6.768;2022-07-24T01:56:39;101539.94;;;23.71;67.10
11987;BME280;6053;51.382;6.768;2022-07-24T01:59:07;101539.41;;;24.07;66.04
11987;BME280;6053;51.382;6.768;2022-07-24T02:01:39;101539.28;;;23.74;66.80
11987;BME280;6053;51.382;6.768;2022-07-24T02:04:08;101539.41;;;23.88;66.17
11987;BME280;6053;51.382;6.768;2022-07-24T02:06:36;101536.31;;;23.17;68.72
11987;BME280;6053;51.382;6.768;2022-07-24T02:09:04;101532.69;;;22.48;68.63
11987;BME280;6053;51.382;6.768;2022-07-24T02:11:33;101535.31;;;21.05;78.50
11987;BME280;6053;51.382;6.768;2022-07-24T02:14:03;101532.72;;;21.44;78.54
11987;BME280;6053;51.382;6.768;2022-07-24T02:16:32;101533.50;;;22.83;73.20
11987;BME280;6053;51.382;6.768;2022-07-24T02:19:00;101535.28;;;23.32;70.54
11987;BME280;6053;51.382;6.768;2022-07-24T02:21:29;101533.16;;;23.67;68.57
11987;BME280;6053;51.382;6.768;2022-07-24T02:23:57;101539.25;;;23.79;68.00
11987;BME280;6053;51.382;6.768;2022-07-24T02:26:26;101537.94;;;23.90;67.33
11987;BME280;6053;51.382;6.768;2022-07-24T02:28:54;101529.13;;;23.97;66.99
11987;BME280;6053;51.382;6.768;2022-07-24T02:31:24;101539.56;;;23.96;66.85
11987;BME280;6053;51.382;6.768;2022-07-24T02:33:53;101533.09;;;23.96;66.92
11987;BME280;6053;51.382;6.768;2022-07-24T02:36:21;101525.78;;;23.95;66.77
11987;BME280;6053;51.382;6.768;2022-07-24T02:38:49;101524.94;;;23.75;67.42
11987;BME280;6053;51.382;6.768;2022-07-24T02:41:18;101526.53;;;23.82;67.11
11987;BME280;6053;51.382;6.768;2022-07-24T02:43:46;101527.28;;;23.87;66.80
11987;BME280;6053;51.382;6.768;2022-07-24T02:46:15;101526.16;;;23.88;66.69
11987;BME280;6053;51.382;6.768;2022-07-24T02:48:45;101527.50;;;23.91;66.59
11987;BME280;6053;51.382;6.768;2022-07-24T02:51:13;101523.13;;;23.85;66.54
11987;BME280;6053;51.382;6.768;2022-07-24T02:53:42;101519.97;;;23.86;66.61
11987;BME280;6053;51.382;6.768;2022-07-24T02:56:10;101510.38;;;23.87;66.51
11987;BME280;6053;51.382;6.768;2022-07-24T02:58:38;101514.94;;;23.83;66.59
11987;BME280;6053;51.382;6.768;2022-07-24T03:01:07;101508.63;;;23.72;66.74
11987;BME280;6053;51.382;6.768;2022-07-24T03:03:35;101509.47;;;23.73;66.76
11987;BME280;6053;51.382;6.768;2022-07-24T03:06:05;101511.09;;;23.55;67.37
11987;BME280;6053;51.382;6.768;2022-07-24T03:08:34;101507.47;;;23.73;66.57
11987;BME280;6053;51.382;6.768;2022-07-24T03:11:02;101509.47;;;23.73;66.43
11987;BME280;6053;51.382;6.768;2022-07-24T03:13:30;101506.97;;;23.71;66.49
11987;BME280;6053;51.382;6.768;2022-07-24T03:16:00;101504.75;;;23.68;66.67
11987;BME280;6053;51.382;6.768;2022-07-24T03:18:29;101505.81;;;23.72;66.47
11987;BME280;6053;51.382;6.768;2022-07-24T03:20:57;101506.59;;;23.78;66.08
11987;BME280;6053;51.382;6.768;2022-07-24T03:23:27;101508.03;;;23.75;66.14
11987;BME280;6053;51.382;6.768;2022-07-24T03:25:55;101503.91;;;23.68;66.38
11987;BME280;6053;51.382;6.768;2022-07-24T03:28:24;101495.97;;;23.70;66.31
11987;BME280;6053;51.382;6.768;2022-07-24T03:30:53;101508.66;;;23.67;66.38
11987;BME280;6053;51.382;6.768;2022-07-24T03:33:21;101510.38;;;23.68;66.22
11987;BME280;6053;51.382;6.768;2022-07-24T03:35:49;101501.94;;;23.68;66.05
11987;BME280;6053;51.382;6.768;2022-07-24T03:38:18;101503.31;;;23.66;66.16
11987;BME280;6053;51.382;6.768;2022-07-24T03:40:48;101510.72;;;23.62;66.00
11987;BME280;6053;51.382;6.768;2022-07-24T03:43:16;101511.31;;;23.59;66.24
11987;BME280;6053;51.382;6.768;2022-07-24T03:45:44;101517.00;;;23.53;66.50
11987;BME280;6053;51.382;6.768;2022-07-24T03:48:13;101517.31;;;23.52;66.56
11987;BME280;6053;51.382;6.768;2022-07-24T03:50:41;101516.53;;;23.46;66.87
11987;BME280;6053;51.382;6.768;2022-07-24T03:53:10;101518.47;;;23.51;66.70
11987;BME280;6053;51.382;6.768;2022-07-24T03:55:40;101520.97;;;23.52;66.74
11987;BME280;6053;51.382;6.768;2022-07-24T03:58:09;101526.34;;;23.49;66.74
11987;BME280;6053;51.382;6.768;2022-07-24T04:00:38;101520.13;;;23.52;66.71
11987;BME280;6053;51.382;6.768;2022-07-24T04:03:06;101521.16;;;23.61;66.40
11987;BME280;6053;51.382;6.768;2022-07-24T04:05:35;101526.22;;;23.59;66.23
11987;BME280;6053;51.382;6.768;2022-07-24T04:08:18;101529.66;;;23.56;66.38
11987;BME280;6053;51.382;6.768;2022-07-24T04:10:46;101519.28;;;23.51;66.49
11987;BME280;6053;51.382;6.768;2022-07-24T04:13:16;101521.09;;;23.42;66.88
11987;BME280;6053;51.382;6.768;2022-07-24T04:15:44;101519.91;;;23.48;66.75
11987;BME280;6053;51.382;6.768;2022-07-24T04:18:13;101520.41;;;23.50;66.73
11987;BME280;6053;51.382;6.768;2022-07-24T04:20:41;101522.16;;;23.46;66.72
11987;BME280;6053;51.382;6.768;2022-07-24T04:23:09;101519.94;;;22.95;68.26
11987;BME280;6053;51.382;6.768;2022-07-24T04:25:38;101517.13;;;21.77;70.76
11987;BME280;6053;51.382;6.768;2022-07-24T04:28:07;101515.34;;;21.97;72.01
11987;BME280;6053;51.382;6.768;2022-07-24T04:30:36;101514.44;;;22.46;71.91
11987;BME280;6053;51.382;6.768;2022-07-24T04:33:05;101522.75;;;22.90;69.88
11987;BME280;6053;51.382;6.768;2022-07-24T04:35:33;101510.16;;;22.14;73.36
11987;BME280;6053;51.382;6.768;2022-07-24T04:38:01;101520.28;;;22.15;73.21
11987;BME280;6053;51.382;6.768;2022-07-24T04:40:30;101511.66;;;21.41;77.52
11987;BME280;6053;51.382;6.768;2022-07-24T04:42:58;101512.88;;;21.10;76.49
11987;BME280;6053;51.382;6.768;2022-07-24T04:45:27;101510.13;;;20.69;79.73
11987;BME280;6053;51.382;6.768;2022-07-24T04:48:03;101513.16;;;20.21;80.88
11987;BME280;6053;51.382;6.768;2022-07-24T04:50:32;101511.31;;;21.63;76.98
11987;BME280;6053;51.382;6.768;2022-07-24T04:53:01;101514.94;;;22.19;72.94
11987;BME280;6053;51.382;6.768;2022-07-24T04:55:30;101511.56;;;22.85;72.10
11987;BME280;6053;51.382;6.768;2022-07-24T04:57:59;101508.44;;;23.16;67.33
11987;BME280;6053;51.382;6.768;2022-07-24T05:00:27;101507.31;;;22.58;72.08
11987;BME280;6053;51.382;6.768;2022-07-24T05:02:56;101502.22;;;22.26;71.80
11987;BME280;6053;51.382;6.768;2022-07-24T05:05:26;101506.19;;;22.89;69.97
11987;BME280;6053;51.382;6.768;2022-07-24T05:07:55;101504.44;;;23.22;67.30
11987;BME280;6053;51.382;6.768;2022-07-24T05:10:23;101506.09;;;24.28;65.34
11987;BME280;6053;51.382;6.768;2022-07-24T05:12:52;101515.25;;;23.10;66.59
11987;BME280;6053;51.382;6.768;2022-07-24T05:15:20;101512.31;;;23.44;62.98
11987;BME280;6053;51.382;6.768;2022-07-24T05:17:48;101515.16;;;22.27;70.02
11987;BME280;6053;51.382;6.768;2022-07-24T05:20:18;101520.50;;;23.21;68.36
11987;BME280;6053;51.382;6.768;2022-07-24T05:22:48;101519.97;;;24.24;64.84
11987;BME280;6053;51.382;6.768;2022-07-24T05:25:16;101530.50;;;25.03;60.47
11987;BME280;6053;51.382;6.768;2022-07-24T05:27:45;101542.19;;;23.69;64.03
11987;BME280;6053;51.382;6.768;2022-07-24T05:30:13;101539.94;;;24.28;64.12
11987;BME280;6053;51.382;6.768;2022-07-24T05:32:41;101555.00;;;23.32;65.64
11987;BME280;6053;51.382;6.768;2022-07-24T05:35:10;101540.66;;;22.36;69.75
11987;BME280;6053;51.382;6.768;2022-07-24T05:37:38;101549.56;;;21.34;73.04
11987;BME280;6053;51.382;6.768;2022-07-24T05:40:09;101542.81;;;22.00;75.24
11987;BME280;6053;51.382;6.768;2022-07-24T05:42:38;101557.03;;;23.26;69.52
11987;BME280;6053;51.382;6.768;2022-07-24T05:45:07;101560.50;;;22.55;72.15
11987;BME280;6053;51.382;6.768;2022-07-24T05:47:36;101567.53;;;24.12;65.66
11987;BME280;6053;51.382;6.768;2022-07-24T05:50:07;101572.56;;;24.34;64.66
11987;BME280;6053;51.382;6.768;2022-07-24T05:52:36;101569.97;;;24.37;62.80
11987;BME280;6053;51.382;6.768;2022-07-24T05:55:08;101564.88;;;23.29;68.71
11987;BME280;6053;51.382;6.768;2022-07-24T05:57:43;101558.19;;;22.96;71.51
11987;BME280;6053;51.382;6.768;2022-07-24T06:00:14;101551.97;;;23.95;66.59
11987;BME280;6053;51.382;6.768;2022-07-24T06:02:49;101552.63;;;23.87;66.55
11987;BME280;6053;51.382;6.768;2022-07-24T06:05:18;101554.13;;;24.93;63.43
11987;BME280;6053;51.382;6.768;2022-07-24T06:07:47;101549.44;;;23.51;67.44
11987;BME280;6053;51.382;6.768;2022-07-24T06:10:17;101542.31;;;24.20;66.70
11987;BME280;6053;51.382;6.768;2022-07-24T06:12:48;101543.81;;;23.51;67.08
11987;BME280;6053;51.382;6.768;2022-07-24T06:15:17;101541.44;;;23.10;68.54
11987;BME280;6053;51.382;6.768;2022-07-24T06:17:45;101554.19;;;23.02;69.35
11987;BME280;6053;51.382;6.768;2022-07-24T06:20:14;101539.41;;;23.64;67.47
11987;BME280;6053;51.382;6.768;2022-07-24T06:22:45;101540.97;;;23.27;67.56
11987;BME280;6053;51.382;6.768;2022-07-24T06:25:17;101542.59;;;23.81;66.53
11987;BME280;6053;51.382;6.768;2022-07-24T06:27:48;101541.47;;;23.58;68.21
11987;BME280;6053;51.382;6.768;2022-07-24T06:30:19;101539.53;;;23.53;67.31
11987;BME280;6053;51.382;6.768;2022-07-24T06:32:49;101535.72;;;23.87;66.25
11987;BME280;6053;51.382;6.768;2022-07-24T06:35:18;101534.72;;;24.73;62.09
11987;BME280;6053;51.382;6.768;2022-07-24T06:37:46;101543.84;;;25.57;59.97
11987;BME280;6053;51.382;6.768;2022-07-24T06:40:18;101542.00;;;24.03;63.34
11987;BME280;6053;51.382;6.768;2022-07-24T06:42:47;101539.00;;;24.70;61.73
11987;BME280;6053;51.382;6.768;2022-07-24T06:45:16;101536.81;;;24.10;62.84
11987;BME280;6053;51.382;6.768;2022-07-24T06:47:44;101531.19;;;24.29;62.78
11987;BME280;6053;51.382;6.768;2022-07-24T06:50:14;101531.81;;;25.38;60.16
11987;BME280;6053;51.382;6.768;2022-07-24T06:52:42;101528.84;;;25.02;61.43
11987;BME280;6053;51.382;6.768;2022-07-24T06:55:13;101524.69;;;25.68;57.72
11987;BME280;6053;51.382;6.768;2022-07-24T06:57:42;101524.59;;;25.87;58.69
11987;BME280;6053;51.382;6.768;2022-07-24T07:00:12;101524.31;;;26.11;58.18
11987;BME280;6053;51.382;6.768;2022-07-24T07:02:40;101530.94;;;26.43;57.05
11987;BME280;6053;51.382;6.768;2022-07-24T07:05:09;101529.00;;;25.66;58.23
11987;BME280;6053;51.382;6.768;2022-07-24T07:07:38;101533.19;;;25.96;58.81
11987;BME280;6053;51.382;6.768;2022-07-24T07:10:08;101535.72;;;26.56;55.75
11987;BME280;6053;51.382;6.768;2022-07-24T07:12:36;101544.25;;;27.49;54.80
11987;BME280;6053;51.382;6.768;2022-07-24T07:15:10;101544.88;;;27.78;53.80
11987;BME280;6053;51.382;6.768;2022-07-24T07:17:41;101544.69;;;25.44;58.94
11987;BME280;6053;51.382;6.768;2022-07-24T07:20:12;101543.13;;;27.19;56.19
11987;BME280;6053;51.382;6.768;2022-07-24T07:22:41;101546.66;;;25.71;57.56
11987;BME280;6053;51.382;6.768;2022-07-24T07:25:10;101547.22;;;26.23;58.07
11987;BME280;6053;51.382;6.768;2022-07-24T07:27:39;101550.44;;;25.67;58.25
11987;BME280;6053;51.382;6.768;2022-07-24T07:30:10;101545.44;;;26.86;56.03
11987;BME280;6053;51.382;6.768;2022-07-24T07:32:39;101544.16;;;27.01;55.83
11987;BME280;6053;51.382;6.768;2022-07-24T07:35:09;101544.53;;;26.77;53.74
11987;BME280;6053;51.382;6.768;2022-07-24T07:37:49;101544.16;;;26.70;57.26
11987;BME280;6053;51.382;6.768;2022-07-24T07:40:18;101550.88;;;27.85;53.24
11987;BME280;6053;51.382;6.768;2022-07-24T07:42:46;101552.41;;;26.44;54.86
11987;BME280;6053;51.382;6.768;2022-07-24T07:45:16;101551.44;;;28.04;52.71
11987;BME280;6053;51.382;6.768;2022-07-24T07:47:45;101546.94;;;28.73;50.60
11987;BME280;6053;51.382;6.768;2022-07-24T07:50:14;101552.06;;;27.84;52.30
11987;BME280;6053;51.382;6.768;2022-07-24T07:52:42;101554.75;;;27.98;51.95
11987;BME280;6053;51.382;6.768;2022-07-24T07:55:12;101549.09;;;28.06;50.40
11987;BME280;6053;51.382;6.768;2022-07-24T07:57:41;101548.81;;;27.68;54.00
11987;BME280;6053;51.382;6.768;2022-07-24T08:00:32;101544.34;;;27.04;53.92
11987;BME280;6053;51.382;6.768;2022-07-24T08:03:01;101544.59;;;28.23;52.57
11987;BME280;6053;51.382;6.768;2022-07-24T08:05:30;101549.41;;;27.96;52.87
11987;BME280;6053;51.382;6.768;2022-07-24T08:07:59;101542.06;;;29.08;51.34
11987;BME280;6053;51.382;6.768;2022-07-24T08:10:28;101539.38;;;27.90;52.50
11987;BME280;6053;51.382;6.768;2022-07-24T08:12:57;101540.94;;;28.22;53.29
11987;BME280;6053;51.382;6.768;2022-07-24T08:15:26;101545.66;;;27.30;53.69
11987;BME280;6053;51.382;6.768;2022-07-24T08:17:57;101538.56;;;27.10;54.21
11987;BME280;6053;51.382;6.768;2022-07-24T08:20:27;101536.75;;;28.63;51.50
11987;BME280;6053;51.382;6.768;2022-07-24T08:22:56;101533.75;;;29.71;49.27
11987;BME280;6053;51.382;6.768;2022-07-24T08:25:25;101538.06;;;28.13;51.97
11987;BME280;6053;51.382;6.768;2022-07-24T08:27:54;101541.41;;;29.02;50.42
11987;BME280;6053;51.382;6.768;2022-07-24T08:30:23;101538.78;;;27.62;52.47
11987;BME280;6053;51.382;6.768;2022-07-24T08:32:53;101537.91;;;27.53;55.15
11987;BME280;6053;51.382;6.768;2022-07-24T08:35:23;101539.03;;;28.96;51.65
11987;BME280;6053;51.382;6.768;2022-07-24T08:37:58;101537.59;;;28.72;51.15
11987;BME280;6053;51.382;6.768;2022-07-24T08:40:32;101520.88;;;29.35;50.27
11987;BME280;6053;51.382;6.768;2022-07-24T08:43:02;101522.81;;;29.52;49.58
11987;BME280;6053;51.382;6.768;2022-07-24T08:45:35;101526.25;;;28.46;51.68
11987;BME280;6053;51.382;6.768;2022-07-24T08:48:06;101524.06;;;28.26;51.37
11987;BME280;6053;51.382;6.768;2022-07-24T08:50:38;101519.88;;;27.88;52.98
11987;BME280;6053;51.382;6.768;2022-07-24T08:53:08;101511.88;;;28.60;51.92
11987;BME280;6053;51.382;6.768;2022-07-24T08:55:38;101521.91;;;28.40;51.42
11987;BME280;6053;51.382;6.768;2022-07-24T08:58:07;101511.56;;;28.18;52.22
11987;BME280;6053;51.382;6.768;2022-07-24T09:00:35;101505.72;;;28.58;50.98
11987;BME280;6053;51.382;6.768;2022-07-24T09:03:04;101507.81;;;28.96;50.89
11987;BME280;6053;51.382;6.768;2022-07-24T09:05:33;101513.38;;;30.19;49.16
11987;BME280;6053;51.382;6.768;2022-07-24T09:08:21;101508.63;;;29.43;50.28
11987;BME280;6053;51.382;6.768;2022-07-24T09:10:57;101498.47;;;28.86;51.99
11987;BME280;6053;51.382;6.768;2022-07-24T09:13:28;101499.44;;;28.99;52.84
11987;BME280;6053;51.382;6.768;2022-07-24T09:16:00;101496.06;;;29.82;50.54
11987;BME280;6053;51.382;6.768;2022-07-24T09:18:30;101483.84;;;28.15;52.43
11987;BME280;6053;51.382;6.768;2022-07-24T09:21:12;101483.50;;;29.24;51.62
11987;BME280;6053;51.382;6.768;2022-07-24T09:23:44;101483.06;;;29.43;49.90
11987;BME280;6053;51.382;6.768;2022-07-24T09:26:13;101485.63;;;28.80;50.93
11987;BME280;6053;51.382;6.768;2022-07-24T09:28:49;101482.19;;;29.13;52.36
11987;BME280;6053;51.382;6.768;2022-07-24T09:31:18;101476.25;;;29.35;50.56
11987;BME280;6053;51.382;6.768;2022-07-24T09:33:49;101478.03;;;30.20;49.16
11987;BME280;6053;51.382;6.768;2022-07-24T09:36:19;101474.47;;;30.44;48.73
11987;BME280;6053;51.382;6.768;2022-07-24T09:38:50;101474.13;;;30.04;48.71
11987;BME280;6053;51.382;6.768;2022-07-24T09:41:20;101479.69;;;30.75;48.79
11987;BME280;6053;51.382;6.768;2022-07-24T09:44:00;101477.41;;;30.69;48.09
11987;BME280;6053;51.382;6.768;2022-07-24T09:46:46;101476.91;;;29.41;49.11
11987;BME280;6053;51.382;6.768;2022-07-24T09:49:20;101474.56;;;30.36;49.51
11987;BME280;6053;51.382;6.768;2022-07-24T09:52:10;101475.69;;;30.22;48.57
11987;BME280;6053;51.382;6.768;2022-07-24T09:54:43;101468.56;;;30.62;48.21
11987;BME280;6053;51.382;6.768;2022-07-24T09:57:19;101464.78;;;29.82;47.60
11987;BME280;6053;51.382;6.768;2022-07-24T09:59:50;101461.13;;;29.44;48.43
11987;BME280;6053;51.382;6.768;2022-07-24T10:02:24;101471.09;;;30.30;48.05
11987;BME280;6053;51.382;6.768;2022-07-24T10:04:54;101466.16;;;29.76;48.50
11987;BME280;6053;51.382;6.768;2022-07-24T10:07:25;101457.94;;;29.24;50.66
11987;BME280;6053;51.382;6.768;2022-07-24T10:09:56;101455.06;;;30.25;49.58
11987;BME280;6053;51.382;6.768;2022-07-24T10:12:28;101461.59;;;30.26;50.31
11987;BME280;6053;51.382;6.768;2022-07-24T10:14:59;101460.22;;;30.44;45.71
11987;BME280;6053;51.382;6.768;2022-07-24T10:20:37;101455.94;;;30.17;48.85
11987;BME280;6053;51.382;6.768;2022-07-24T10:23:21;101451.28;;;30.34;47.31
11987;BME280;6053;51.382;6.768;2022-07-24T10:26:05;101453.72;;;31.02;46.57
11987;BME280;6053;51.382;6.768;2022-07-24T10:28:40;101453.38;;;30.03;47.11
11987;BME280;6053;51.382;6.768;2022-07-24T10:31:10;101442.75;;;30.13;49.47
11987;BME280;6053;51.382;6.768;2022-07-24T10:33:42;101438.75;;;29.72;50.72
11987;BME280;6053;51.382;6.768;2022-07-24T10:36:17;101440.91;;;29.75;48.77
11987;BME280;6053;51.382;6.768;2022-07-24T10:38:55;101444.59;;;29.46;48.68
11987;BME280;6053;51.382;6.768;2022-07-24T10:41:26;101439.78;;;28.99;49.27
11987;BME280;6053;51.382;6.768;2022-07-24T10:44:15;101439.09;;;30.12;49.64
11987;BME280;6053;51.382;6.768;2022-07-24T10:46:59;101426.25;;;29.64;46.10
11987;BME280;6053;51.382;6.768;2022-07-24T10:49:35;101434.78;;;30.06;45.34
11987;BME280;6053;51.382;6.768;2022-07-24T10:52:05;101418.81;;;29.21;46.72
11987;BME280;6053;51.382;6.768;2022-07-24T10:54:33;101426.94;;;30.03;47.73
11987;BME280;6053;51.382;6.768;2022-07-24T10:57:04;101426.75;;;30.41;46.58
11987;BME280;6053;51.382;6.768;2022-07-24T10:59:35;101417.66;;;31.06;45.90
11987;BME280;6053;51.382;6.768;2022-07-24T11:02:24;101416.00;;;31.29;48.07
11987;BME280;6053;51.382;6.768;2022-07-24T11:05:27;101419.44;;;31.35;44.47
11987;BME280;6053;51.382;6.768;2022-07-24T11:11:11;101410.16;;;30.43;47.20
11987;BME280;6053;51.382;6.768;2022-07-24T11:13:43;101420.47;;;30.36;44.57
11987;BME280;6053;51.382;6.768;2022-07-24T11:16:27;101404.97;;;29.70;47.60
11987;BME280;6053;51.382;6.768;2022-07-24T11:19:26;101396.38;;;29.79;47.94
11987;BME280;6053;51.382;6.768;2022-07-24T11:22:16;101405.13;;;29.95;47.77
11987;BME280;6053;51.382;6.768;2022-07-24T11:25:05;101409.56;;;30.83;45.89
11987;BME280;6053;51.382;6.768;2022-07-24T11:27:55;101405.16;;;30.07;47.97
11987;BME280;6053;51.382;6.768;2022-07-24T11:30:27;101380.94;;;29.59;45.93
11987;BME280;6053;51.382;6.768;2022-07-24T11:32:58;101389.63;;;29.83;49.16
11987;BME280;6053;51.382;6.768;2022-07-24T11:35:29;101393.47;;;30.54;47.00
11987;BME280;6053;51.382;6.768;2022-07-24T11:37:59;101383.34;;;30.44;44.24
11987;BME280;6053;51.382;6.768;2022-07-24T11:40:29;101374.81;;;29.78;45.82
11987;BME280;6053;51.382;6.768;2022-07-24T11:43:00;101375.31;;;30.13;47.18
11987;BME280;6053;51.382;6.768;2022-07-24T11:45:38;101374.63;;;29.53;47.44
11987;BME280;6053;51.382;6.768;2022-07-24T11:48:18;101370.31;;;29.26;46.10
11987;BME280;6053;51.382;6.768;2022-07-24T11:51:03;101372.09;;;30.15;47.28
11987;BME280;6053;51.382;6.768;2022-07-24T11:53:53;101369.69;;;30.25;44.15
11987;BME280;6053;51.382;6.768;2022-07-24T11:56:21;101371.09;;;30.19;46.09
11987;BME280;6053;51.382;6.768;2022-07-24T11:58:50;101367.97;;;29.49;47.17
11987;BME280;6053;51.382;6.768;2022-07-24T12:01:21;101365.66;;;30.84;46.44
11987;BME280;6053;51.382;6.768;2022-07-24T12:03:51;101364.34;;;31.06;42.97
11987;BME280;6053;51.382;6.768;2022-07-24T12:06:21;101362.47;;;30.40;42.83
11987;BME280;6053;51.382;6.768;2022-07-24T12:08:59;101363.25;;;30.98;43.74
11987;BME280;6053;51.382;6.768;2022-07-24T12:11:34;101361.28;;;30.41;43.38
11987;BME280;6053;51.382;6.768;2022-07-24T12:14:05;101356.50;;;30.21;42.99
11987;BME280;6053;51.382;6.768;2022-07-24T12:16:35;101354.38;;;30.30;45.90
11987;BME280;6053;51.382;6.768;2022-07-24T12:19:18;101353.88;;;31.10;44.58
11987;BME280;6053;51.382;6.768;2022-07-24T12:21:49;101350.94;;;30.24;45.50
11987;BME280;6053;51.382;6.768;2022-07-24T12:24:19;101359.16;;;30.50;45.20
11987;BME280;6053;51.382;6.768;2022-07-24T12:26:50;101341.88;;;31.05;42.96
11987;BME280;6053;51.382;6.768;2022-07-24T12:29:19;101339.97;;;30.14;45.45
11987;BME280;6053;51.382;6.768;2022-07-24T12:31:52;101333.94;;;30.16;42.48
11987;BME280;6053;51.382;6.768;2022-07-24T12:34:22;101329.34;;;30.23;43.71
11987;BME280;6053;51.382;6.768;2022-07-24T12:36:50;101332.81;;;29.96;43.76
11987;BME280;6053;51.382;6.768;2022-07-24T12:39:19;101328.38;;;30.89;41.10
11987;BME280;6053;51.382;6.768;2022-07-24T12:41:50;101319.84;;;30.77;43.81
11987;BME280;6053;51.382;6.768;2022-07-24T12:44:39;101320.38;;;30.58;40.91
11987;BME280;6053;51.382;6.768;2022-07-24T12:47:11;101318.13;;;30.64;44.93
11987;BME280;6053;51.382;6.768;2022-07-24T12:49:40;101309.63;;;30.76;41.05
11987;BME280;6053;51.382;6.768;2022-07-24T12:52:19;101303.31;;;30.95;41.28
11987;BME280;6053;51.382;6.768;2022-07-24T12:54:49;101305.88;;;31.49;42.57
11987;BME280;6053;51.382;6.768;2022-07-24T12:57:21;101312.34;;;31.09;40.29
11987;BME280;6053;51.382;6.768;2022-07-24T13:00:01;101298.19;;;31.13;39.99
11987;BME280;6053;51.382;6.768;2022-07-24T13:02:32;101298.06;;;31.34;41.81
11987;BME280;6053;51.382;6.768;2022-07-24T13:05:02;101301.53;;;31.03;42.68
11987;BME280;6053;51.382;6.768;2022-07-24T13:07:30;101302.78;;;31.42;38.88
11987;BME280;6053;51.382;6.768;2022-07-24T13:09:59;101284.22;;;31.48;42.47
11987;BME280;6053;51.382;6.768;2022-07-24T13:12:28;101287.69;;;31.41;40.71
11987;BME280;6053;51.382;6.768;2022-07-24T13:14:56;101277.91;;;31.02;40.39
11987;BME280;6053;51.382;6.768;2022-07-24T13:17:25;101281.34;;;30.46;40.55
11987;BME280;6053;51.382;6.768;2022-07-24T13:19:55;101273.50;;;30.68;39.79
11987;BME280;6053;51.382;6.768;2022-07-24T13:22:24;101266.13;;;31.16;41.18
11987;BME280;6053;51.382;6.768;2022-07-24T13:24:53;101263.81;;;30.93;38.53